Terminal Aerodrome Forecast
Issued by NWS

Home | Current Version | Previous Version | Text Only | Print | Product List | Glossary On
Versions: 1 2 3 4 5 6 7 8 9 10 11 12 13 14 15 16 17 18
000
FTUS44 KLZK 190500
TAFPBF
TAF
KPBF 190537Z 1906/2006 02003KT P6SM SCT040
      TEMPO 1906/1910 5SM BR BKN025
     FM191000 03003KT 4SM BR BKN015
     FM191400 07003KT P6SM OVC025
     FM191700 10005KT P6SM SCT040
     FM200000 VRB03KT P6SM SCT250=

USA.gov is the U.S. government's official web portal to all federal, state and local government web resources and services.